createdAt,value
2017-11-23T00:01:49.878Z,96.77
2017-11-23T00:04:17.624Z,96.53
2017-11-23T00:06:45.354Z,96.11
2017-11-23T00:09:13.143Z,95.99
2017-11-23T00:11:40.861Z,95.80
2017-11-23T00:14:09.627Z,96.43
2017-11-23T00:16:37.472Z,95.86
2017-11-23T00:19:05.163Z,95.27
2017-11-23T00:21:32.887Z,94.56
2017-11-23T00:24:00.830Z,94.44
2017-11-23T00:26:28.533Z,94.24
2017-11-23T00:28:56.229Z,94.49
2017-11-23T00:31:23.989Z,94.37
2017-11-23T00:33:51.755Z,94.57
2017-11-23T00:36:19.509Z,94.81
2017-11-23T00:38:47.303Z,95.23
2017-11-23T00:41:15.119Z,95.23
2017-11-23T00:43:42.904Z,94.95
2017-11-23T00:46:10.615Z,94.88
2017-11-23T00:48:38.377Z,95.04
2017-11-23T00:51:06.072Z,95.60
2017-11-23T00:53:33.772Z,95.86
2017-11-23T00:56:01.571Z,96.03
2017-11-23T00:58:29.289Z,96.46
2017-11-23T01:00:56.986Z,96.32
2017-11-23T01:03:24.760Z,95.74
2017-11-23T01:05:52.506Z,95.17
2017-11-23T01:08:20.223Z,94.78
2017-11-23T01:10:47.976Z,95.45
2017-11-23T01:13:15.653Z,95.85
2017-11-23T01:15:43.397Z,96.22
2017-11-23T01:18:11.131Z,96.10
2017-11-23T01:20:38.832Z,96.09
2017-11-23T01:23:06.578Z,96.14
2017-11-23T01:25:34.305Z,96.38
2017-11-23T01:28:02.139Z,96.48
2017-11-23T01:30:29.871Z,96.50
2017-11-23T01:32:57.672Z,96.29
2017-11-23T01:35:25.536Z,96.27
2017-11-23T01:37:53.247Z,96.26
2017-11-23T01:40:21.272Z,96.11
2017-11-23T01:42:49.139Z,96.42
2017-11-23T01:45:16.844Z,96.27
2017-11-23T01:47:44.609Z,96.01
2017-11-23T01:50:12.331Z,96.00
2017-11-23T01:52:40.060Z,95.73
2017-11-23T01:55:07.817Z,95.74
2017-11-23T01:57:35.572Z,95.63
2017-11-23T02:00:03.382Z,95.89
2017-11-23T02:02:31.170Z,96.45
2017-11-23T02:04:58.941Z,96.39
2017-11-23T02:07:26.686Z,96.35
2017-11-23T02:09:54.490Z,96.64
2017-11-23T02:12:22.301Z,96.87
2017-11-23T02:14:50.185Z,96.92
2017-11-23T02:17:18.761Z,96.45
2017-11-23T02:19:46.634Z,95.76
2017-11-23T02:22:14.481Z,95.04
2017-11-23T02:24:42.325Z,94.60
2017-11-23T02:27:10.178Z,94.66
2017-11-23T02:29:38.021Z,95.49
2017-11-23T02:32:05.830Z,95.83
2017-11-23T02:34:33.670Z,96.03
2017-11-23T02:37:01.443Z,96.24
2017-11-23T02:39:29.270Z,96.21
2017-11-23T02:41:56.968Z,96.39
2017-11-23T02:44:24.706Z,96.00
2017-11-23T02:46:52.521Z,95.60
2017-11-23T02:49:20.230Z,95.33
2017-11-23T02:51:48.289Z,95.04
2017-11-23T02:54:16.074Z,95.32
2017-11-23T02:56:43.875Z,95.58
2017-11-23T02:59:11.715Z,96.14
2017-11-23T03:01:39.410Z,96.00
2017-11-23T03:04:07.197Z,95.94
2017-11-23T03:06:34.898Z,96.29
2017-11-23T03:09:02.668Z,96.44
2017-11-23T03:11:30.441Z,96.52
2017-11-23T03:13:58.180Z,96.47
2017-11-23T03:16:25.943Z,96.37
2017-11-23T03:18:53.805Z,96.16
2017-11-23T03:21:21.580Z,95.96
2017-11-23T03:23:49.329Z,95.89
2017-11-23T03:26:17.104Z,95.65
2017-11-23T03:28:44.848Z,95.54
2017-11-23T03:31:12.929Z,95.96
2017-11-23T03:33:40.665Z,95.87
2017-11-23T03:36:08.401Z,95.78
2017-11-23T03:38:36.155Z,95.91
2017-11-23T03:41:03.967Z,95.61
2017-11-23T03:43:31.726Z,95.67
2017-11-23T03:45:59.511Z,95.87
2017-11-23T03:48:27.219Z,96.09
2017-11-23T03:50:54.976Z,96.33
2017-11-23T03:53:22.672Z,96.21
2017-11-23T03:55:50.464Z,95.72
2017-11-23T03:58:18.146Z,95.80
2017-11-23T04:00:45.934Z,95.87
2017-11-23T04:03:13.787Z,95.54
2017-11-23T04:05:41.589Z,95.70
2017-11-23T04:08:09.309Z,96.05
2017-11-23T04:10:37.059Z,96.17
2017-11-23T04:13:04.839Z,96.15
2017-11-23T04:15:32.530Z,96.44
2017-11-23T04:18:00.281Z,96.36
2017-11-23T04:20:28.003Z,96.15
2017-11-23T04:22:55.752Z,95.79
2017-11-23T04:25:23.488Z,95.50
2017-11-23T04:27:51.287Z,95.19
2017-11-23T04:30:19.023Z,94.83
2017-11-23T04:32:46.769Z,94.76
2017-11-23T04:35:14.513Z,95.12
2017-11-23T04:37:42.252Z,94.56
2017-11-23T04:40:09.965Z,94.71
2017-11-23T04:42:37.779Z,94.84
2017-11-23T04:45:05.532Z,95.15
2017-11-23T04:47:33.340Z,95.56
2017-11-23T04:50:01.133Z,95.83
2017-11-23T04:52:28.831Z,96.01
2017-11-23T04:54:56.537Z,96.09
2017-11-23T04:57:24.406Z,95.97
2017-11-23T04:59:52.094Z,95.62
2017-11-23T05:02:19.770Z,96.24
2017-11-23T05:04:47.530Z,96.58
2017-11-23T05:07:15.259Z,96.71
2017-11-23T05:09:43.018Z,96.79
2017-11-23T05:12:10.758Z,96.86
2017-11-23T05:14:38.495Z,96.68
2017-11-23T05:17:06.193Z,96.70
2017-11-23T05:19:33.934Z,96.28
2017-11-23T05:22:01.737Z,96.30
2017-11-23T05:24:29.599Z,96.11
2017-11-23T05:26:57.288Z,95.90
2017-11-23T05:29:25.102Z,95.87
2017-11-23T05:31:52.795Z,95.74
2017-11-23T05:34:20.527Z,95.67
2017-11-23T05:36:48.286Z,95.82
2017-11-23T05:39:15.986Z,95.95
2017-11-23T05:41:43.778Z,95.74
2017-11-23T05:44:11.568Z,96.06
2017-11-23T05:46:39.320Z,96.44
2017-11-23T05:49:07.106Z,96.42
2017-11-23T05:51:34.927Z,96.24
2017-11-23T05:54:02.638Z,96.73
2017-11-23T05:56:30.384Z,96.01
2017-11-23T05:58:58.953Z,96.33
2017-11-23T06:01:26.993Z,96.42
2017-11-23T06:03:54.986Z,96.28
2017-11-23T06:06:22.678Z,95.90
2017-11-23T06:08:50.453Z,96.13
2017-11-23T06:11:18.202Z,96.05
2017-11-23T06:13:45.922Z,95.86
2017-11-23T06:16:13.730Z,95.90
2017-11-23T06:18:41.419Z,96.24
2017-11-23T06:21:09.285Z,96.10
2017-11-23T06:23:37.161Z,95.99
2017-11-23T06:26:04.937Z,95.92
2017-11-23T06:28:32.699Z,96.09
2017-11-23T06:31:00.381Z,96.04
2017-11-23T06:33:28.133Z,95.92
2017-11-23T06:35:55.852Z,95.88
2017-11-23T06:38:23.661Z,95.64
2017-11-23T06:40:51.358Z,96.65
2017-11-23T06:43:19.173Z,96.17
2017-11-23T06:45:46.880Z,96.18
2017-11-23T06:48:14.717Z,96.34
2017-11-23T06:50:42.413Z,96.23
2017-11-23T06:53:10.159Z,96.12
2017-11-23T06:55:37.893Z,96.37
2017-11-23T06:58:05.597Z,96.04
2017-11-23T07:00:33.349Z,95.49
2017-11-23T07:03:01.064Z,95.12
2017-11-23T07:05:28.767Z,94.86
2017-11-23T07:07:56.902Z,94.25
2017-11-23T07:10:24.627Z,94.28
2017-11-23T07:12:52.322Z,94.78
2017-11-23T07:15:20.179Z,94.98
2017-11-23T07:17:53.541Z,94.58
2017-11-23T07:20:21.267Z,94.49
2017-11-23T07:22:49.789Z,94.60
2017-11-23T07:25:17.535Z,94.46
2017-11-23T07:27:45.322Z,94.25
2017-11-23T07:30:13.049Z,93.69
2017-11-23T07:32:40.768Z,93.37
2017-11-23T07:35:08.511Z,93.52
2017-11-23T07:37:36.218Z,93.66
2017-11-23T07:40:04.070Z,94.12
2017-11-23T07:42:31.786Z,94.51
2017-11-23T07:44:59.483Z,94.42
2017-11-23T07:47:27.357Z,93.72
2017-11-23T07:49:55.252Z,93.13
2017-11-23T07:52:23.493Z,93.42
2017-11-23T07:54:52.878Z,92.72
2017-11-23T07:57:21.059Z,93.43
2017-11-23T07:59:48.797Z,94.26
2017-11-23T08:02:16.494Z,94.29
2017-11-23T08:04:44.246Z,94.23
2017-11-23T08:07:12.013Z,93.45
2017-11-23T08:09:39.812Z,93.17
2017-11-23T08:12:07.531Z,92.90
2017-11-23T08:14:35.301Z,92.55
2017-11-23T08:17:03.081Z,93.18
2017-11-23T08:19:30.916Z,92.73
2017-11-23T08:21:58.712Z,92.90
2017-11-23T08:24:26.470Z,92.17
2017-11-23T08:26:54.228Z,91.79
2017-11-23T08:29:21.971Z,92.64
2017-11-23T08:31:49.817Z,92.46
2017-11-23T08:34:17.511Z,91.47
2017-11-23T08:36:45.214Z,91.17
2017-11-23T08:39:12.963Z,91.07
2017-11-23T08:41:40.728Z,91.48
2017-11-23T08:44:08.484Z,91.64
2017-11-23T08:46:36.176Z,92.43
2017-11-23T08:49:03.982Z,92.46
2017-11-23T08:51:31.708Z,91.54
2017-11-23T08:53:59.454Z,91.09
2017-11-23T08:56:27.381Z,91.21
2017-11-23T08:58:55.096Z,91.52
2017-11-23T09:01:22.800Z,91.92
2017-11-23T09:03:50.618Z,92.92
2017-11-23T09:06:18.399Z,92.85
2017-11-23T09:08:46.192Z,93.05
2017-11-23T09:11:14.248Z,93.29
2017-11-23T09:13:42.605Z,93.57
2017-11-23T09:16:10.383Z,93.42
2017-11-23T09:18:38.517Z,92.73
2017-11-23T09:21:06.220Z,92.64
2017-11-23T09:23:34.043Z,92.46
2017-11-23T09:26:01.771Z,91.58
2017-11-23T09:28:29.500Z,90.62
2017-11-23T09:30:57.248Z,90.10
2017-11-23T09:33:25.051Z,89.40
2017-11-23T09:35:52.767Z,91.37
2017-11-23T09:38:20.558Z,91.41
2017-11-23T09:40:48.419Z,92.06
2017-11-23T09:43:16.119Z,92.30
2017-11-23T09:45:43.855Z,92.74
2017-11-23T09:48:11.561Z,92.30
2017-11-23T09:50:39.272Z,92.91
2017-11-23T09:53:07.026Z,92.91
2017-11-23T09:55:34.825Z,92.30
2017-11-23T09:58:02.634Z,90.66
2017-11-23T10:00:30.351Z,88.19
2017-11-23T10:02:58.042Z,86.60
2017-11-23T10:05:25.844Z,85.94
2017-11-23T10:07:53.616Z,85.91
2017-11-23T10:10:21.590Z,87.61
2017-11-23T10:12:49.425Z,90.06
2017-11-23T10:15:17.162Z,90.04
2017-11-23T10:17:44.994Z,89.71
2017-11-23T10:20:12.663Z,87.56
2017-11-23T10:22:40.405Z,87.26
2017-11-23T10:25:08.136Z,88.72
2017-11-23T10:27:35.812Z,88.84
2017-11-23T10:30:03.568Z,88.64
2017-11-23T10:32:31.353Z,89.02
2017-11-23T10:34:59.069Z,88.78
2017-11-23T10:37:32.241Z,87.45
2017-11-23T10:39:59.957Z,87.01
2017-11-23T10:42:27.770Z,86.69
2017-11-23T10:44:55.554Z,84.75
2017-11-23T10:47:24.342Z,83.47
2017-11-23T10:49:52.062Z,82.25
2017-11-23T10:52:19.922Z,79.64
2017-11-23T10:54:47.686Z,78.63
2017-11-23T10:57:16.557Z,79.04
2017-11-23T10:59:44.292Z,79.02
2017-11-23T11:02:12.009Z,81.77
2017-11-23T11:04:39.813Z,81.93
2017-11-23T11:07:07.637Z,81.55
2017-11-23T11:09:35.345Z,78.98
2017-11-23T11:12:03.095Z,78.98
2017-11-23T11:14:31.178Z,76.11
2017-11-23T11:16:58.925Z,74.60
2017-11-23T11:19:26.746Z,73.68
2017-11-23T11:21:55.481Z,73.57
2017-11-23T11:24:23.188Z,74.97
2017-11-23T11:26:50.977Z,75.41
2017-11-23T11:29:18.753Z,74.80
2017-11-23T11:31:47.134Z,76.21
2017-11-23T11:34:14.894Z,76.89
2017-11-23T11:36:42.658Z,74.34
2017-11-23T11:39:10.420Z,72.52
2017-11-23T11:41:38.158Z,71.42
2017-11-23T11:44:05.954Z,72.64
2017-11-23T11:46:33.625Z,73.86
2017-11-23T11:49:01.376Z,74.50
2017-11-23T11:51:29.786Z,74.43
2017-11-23T11:53:57.589Z,72.91
2017-11-23T11:56:25.388Z,74.61
2017-11-23T11:58:53.100Z,73.39
2017-11-23T12:01:20.843Z,71.12
2017-11-23T12:03:50.694Z,69.92
2017-11-23T12:06:18.482Z,69.08
2017-11-23T12:08:46.411Z,68.05
2017-11-23T12:11:14.180Z,68.78
2017-11-23T12:16:49.826Z,72.16
2017-11-23T12:19:17.817Z,73.62
2017-11-23T12:25:02.632Z,73.21
2017-11-23T12:27:42.141Z,73.06
2017-11-23T12:30:12.778Z,69.81
2017-11-23T12:32:40.558Z,69.16
2017-11-23T12:35:08.351Z,70.13
2017-11-23T12:37:36.216Z,71.38
2017-11-23T12:40:05.629Z,70.14
2017-11-23T12:42:33.387Z,69.72
2017-11-23T12:45:01.154Z,71.00
2017-11-23T12:47:29.515Z,70.34
2017-11-23T12:49:57.301Z,71.64
2017-11-23T12:52:25.236Z,71.53
2017-11-23T12:54:52.989Z,72.44
2017-11-23T12:57:20.756Z,73.83
2017-11-23T12:59:48.525Z,73.95
2017-11-23T13:02:16.266Z,73.30
2017-11-23T13:04:44.022Z,73.15
2017-11-23T13:07:12.386Z,74.01
2017-11-23T13:09:40.151Z,74.19
2017-11-23T13:12:07.873Z,74.40
2017-11-23T13:14:35.637Z,73.56
2017-11-23T13:17:03.361Z,73.40
2017-11-23T13:19:31.087Z,74.69
2017-11-23T13:21:58.914Z,75.53
2017-11-23T13:24:26.703Z,74.99
2017-11-23T13:26:54.485Z,76.08
2017-11-23T13:29:22.225Z,75.78
2017-11-23T13:31:49.987Z,75.02
2017-11-23T13:34:17.791Z,76.65
2017-11-23T13:36:45.606Z,74.54
2017-11-23T13:39:13.445Z,74.28
2017-11-23T13:41:41.180Z,74.37
2017-11-23T13:44:08.949Z,76.00
2017-11-23T13:46:36.741Z,74.85
2017-11-23T13:49:04.479Z,77.30
2017-11-23T13:51:32.179Z,78.21
2017-11-23T13:53:59.912Z,78.55
2017-11-23T13:56:28.802Z,79.63
2017-11-23T13:58:57.666Z,79.33
2017-11-23T14:01:25.446Z,80.05
2017-11-23T14:03:53.194Z,80.41
2017-11-23T14:06:21.489Z,78.72
2017-11-23T14:08:49.200Z,78.95
2017-11-23T14:11:17.799Z,79.12
2017-11-23T14:13:45.568Z,81.10
2017-11-23T14:16:14.291Z,82.22
2017-11-23T14:18:42.036Z,81.71
2017-11-23T14:21:09.918Z,81.82
2017-11-23T14:23:38.295Z,80.87
2017-11-23T14:26:06.086Z,80.69
2017-11-23T14:28:34.601Z,80.52
2017-11-23T14:31:03.391Z,81.12
2017-11-23T14:33:31.100Z,81.75
2017-11-23T14:35:58.862Z,82.36
2017-11-23T14:38:27.287Z,81.64
2017-11-23T14:40:55.111Z,81.17
2017-11-23T14:43:22.819Z,81.60
2017-11-23T14:45:50.599Z,82.77
2017-11-23T14:48:18.307Z,83.99
2017-11-23T14:50:46.863Z,82.90
2017-11-23T14:53:14.683Z,83.36
2017-11-23T14:55:42.458Z,84.30
2017-11-23T14:58:10.202Z,83.47
2017-11-23T15:00:37.991Z,83.22
2017-11-23T15:03:05.720Z,84.04
2017-11-23T15:05:33.476Z,84.38
2017-11-23T15:08:02.078Z,83.99
2017-11-23T15:10:29.827Z,83.79
2017-11-23T15:12:58.622Z,83.85
2017-11-23T15:15:26.356Z,85.59
2017-11-23T15:17:54.332Z,85.18
2017-11-23T15:20:23.049Z,85.24
2017-11-23T15:22:50.793Z,84.61
2017-11-23T15:25:18.569Z,86.04
2017-11-23T15:27:46.367Z,85.45
2017-11-23T15:30:14.149Z,85.39
2017-11-23T15:32:41.946Z,85.32
2017-11-23T15:35:09.864Z,86.03
2017-11-23T15:37:37.573Z,85.29
2017-11-23T15:40:05.362Z,85.57
2017-11-23T15:42:33.073Z,86.70
2017-11-23T15:45:00.930Z,87.03
2017-11-23T15:47:28.972Z,86.59
2017-11-23T15:49:56.688Z,87.63
2017-11-23T15:52:24.467Z,87.79
2017-11-23T15:54:52.349Z,87.04
2017-11-23T15:57:20.076Z,87.16
2017-11-23T15:59:47.861Z,86.59
2017-11-23T16:02:15.583Z,87.30
2017-11-23T16:04:43.415Z,86.70
2017-11-23T16:07:11.121Z,87.78
2017-11-23T16:09:38.899Z,87.71
2017-11-23T16:12:06.614Z,88.73
2017-11-23T16:14:35.041Z,88.31
2017-11-23T16:17:02.816Z,87.00
2017-11-23T16:19:31.128Z,87.08
2017-11-23T16:21:58.895Z,87.58
2017-11-23T16:24:26.738Z,87.60
2017-11-23T16:26:54.557Z,88.01
2017-11-23T16:29:22.390Z,88.61
2017-11-23T16:31:50.194Z,88.38
2017-11-23T16:34:18.048Z,88.23
2017-11-23T16:36:46.006Z,87.97
2017-11-23T16:39:15.441Z,87.56
2017-11-23T16:44:52.037Z,88.49
2017-11-23T16:47:25.278Z,88.16
2017-11-23T16:49:58.658Z,89.29
2017-11-23T16:55:34.216Z,88.98
2017-11-23T16:58:03.301Z,88.77
2017-11-23T17:03:37.118Z,88.33
2017-11-23T17:06:10.341Z,88.54
2017-11-23T17:08:40.076Z,88.73
2017-11-23T17:11:14.185Z,89.47
2017-11-23T17:16:54.644Z,89.05
2017-11-23T17:19:25.347Z,89.22
2017-11-23T17:21:53.087Z,88.19
2017-11-23T17:24:20.836Z,88.40
2017-11-23T17:26:48.605Z,89.03
2017-11-23T17:29:16.347Z,88.67
2017-11-23T17:31:44.050Z,89.35
2017-11-23T17:34:11.780Z,89.18
2017-11-23T17:36:39.564Z,88.54
2017-11-23T17:39:07.276Z,88.65
2017-11-23T17:41:35.087Z,88.89
2017-11-23T17:44:03.459Z,90.18
2017-11-23T17:46:32.376Z,89.92
2017-11-23T17:49:00.209Z,90.28
2017-11-23T17:51:28.010Z,90.32
2017-11-23T17:53:56.861Z,90.21
2017-11-23T17:56:25.282Z,90.46
2017-11-23T17:58:59.117Z,90.08
2017-11-23T18:01:27.379Z,89.97
2017-11-23T18:03:55.363Z,90.05
2017-11-23T18:06:23.332Z,90.49
2017-11-23T18:08:51.043Z,90.53
2017-11-23T18:11:18.846Z,89.82
2017-11-23T18:13:46.624Z,89.40
2017-11-23T18:16:14.389Z,89.57
2017-11-23T18:18:42.136Z,90.44
2017-11-23T18:21:10.072Z,90.14
2017-11-23T18:23:37.837Z,89.97
2017-11-23T18:26:05.637Z,90.79
2017-11-23T18:28:34.895Z,90.52
2017-11-23T18:31:04.575Z,90.56
2017-11-23T18:33:33.166Z,90.46
2017-11-23T18:36:01.685Z,89.80
2017-11-23T18:38:30.392Z,90.07
2017-11-23T18:40:58.242Z,90.51
2017-11-23T18:43:29.844Z,91.00
2017-11-23T18:45:59.415Z,90.63
2017-11-23T18:48:30.815Z,90.95
2017-11-23T18:50:58.529Z,90.97
2017-11-23T18:53:26.277Z,91.18
2017-11-23T18:55:56.239Z,91.14
2017-11-23T18:58:24.263Z,91.01
2017-11-23T19:00:52.216Z,90.73
2017-11-23T19:03:19.970Z,90.28
2017-11-23T19:05:47.754Z,89.86
2017-11-23T19:08:15.503Z,90.14
2017-11-23T19:10:43.415Z,90.17
2017-11-23T19:13:11.205Z,90.43
2017-11-23T19:15:39.006Z,90.26
2017-11-23T19:18:06.805Z,89.76
2017-11-23T19:20:34.761Z,90.50
2017-11-23T19:23:03.510Z,90.28
2017-11-23T19:25:31.288Z,90.11
2017-11-23T19:27:59.073Z,90.63
2017-11-23T19:30:26.829Z,90.77
2017-11-23T19:32:54.687Z,91.76
2017-11-23T19:35:22.426Z,91.72
2017-11-23T19:37:50.224Z,92.57
2017-11-23T19:40:18.018Z,92.40
2017-11-23T19:42:46.586Z,91.44
2017-11-23T19:45:14.356Z,91.22
2017-11-23T19:47:42.252Z,90.76
2017-11-23T19:50:10.100Z,90.41
2017-11-23T19:52:38.030Z,90.69
2017-11-23T19:55:05.829Z,91.06
2017-11-23T19:57:33.747Z,91.15
2017-11-23T20:00:01.552Z,91.42
2017-11-23T20:02:29.825Z,91.08
2017-11-23T20:04:57.592Z,91.23
2017-11-23T20:07:25.388Z,91.61
2017-11-23T20:09:53.239Z,91.62
2017-11-23T20:12:21.135Z,92.61
2017-11-23T20:14:48.893Z,92.46
2017-11-23T20:17:16.688Z,91.69
2017-11-23T20:19:44.508Z,91.61
2017-11-23T20:22:12.445Z,92.28
2017-11-23T20:24:40.334Z,92.61
2017-11-23T20:27:08.068Z,91.75
2017-11-23T20:29:35.899Z,91.97
2017-11-23T20:32:04.579Z,91.92
2017-11-23T20:34:32.516Z,91.78
2017-11-23T20:37:00.581Z,92.60
2017-11-23T20:39:29.292Z,93.29
2017-11-23T20:41:58.043Z,92.74
2017-11-23T20:44:25.884Z,92.41
2017-11-23T20:46:53.883Z,92.44
2017-11-23T20:49:21.664Z,92.45
2017-11-23T20:51:49.618Z,92.41
2017-11-23T20:54:17.473Z,92.48
2017-11-23T20:56:45.383Z,92.45
2017-11-23T20:59:13.298Z,92.21
2017-11-23T21:01:41.988Z,92.83
2017-11-23T21:04:10.353Z,92.83
2017-11-23T21:06:38.340Z,92.82
2017-11-23T21:09:06.254Z,93.22
2017-11-23T21:11:34.076Z,92.89
2017-11-23T21:14:01.921Z,92.49
2017-11-23T21:16:30.847Z,92.14
2017-11-23T21:18:58.708Z,92.29
2017-11-23T21:21:27.656Z,92.56
2017-11-23T21:23:55.452Z,92.93
2017-11-23T21:26:23.366Z,92.65
2017-11-23T21:28:51.288Z,92.57
2017-11-23T21:31:19.150Z,93.14
2017-11-23T21:33:46.956Z,93.06
2017-11-23T21:36:14.834Z,92.74
2017-11-23T21:38:42.634Z,92.88
2017-11-23T21:41:10.440Z,93.53
2017-11-23T21:43:38.222Z,94.11
2017-11-23T21:46:07.458Z,93.90
2017-11-23T21:48:35.329Z,93.79
2017-11-23T21:51:03.165Z,93.81
2017-11-23T21:53:30.902Z,94.45
2017-11-23T21:55:58.608Z,95.11
2017-11-23T21:58:26.355Z,95.89
2017-11-23T22:00:54.105Z,96.02
2017-11-23T22:03:21.813Z,95.70
2017-11-23T22:05:49.634Z,96.25
2017-11-23T22:08:17.369Z,95.93
2017-11-23T22:10:45.136Z,96.06
2017-11-23T22:13:13.685Z,96.11
2017-11-23T22:15:41.490Z,96.53
2017-11-23T22:18:09.388Z,96.34
2017-11-23T22:20:37.145Z,96.28
2017-11-23T22:23:04.883Z,96.12
2017-11-23T22:25:32.688Z,95.99
2017-11-23T22:28:00.381Z,96.27
2017-11-23T22:30:28.136Z,96.09
2017-11-23T22:32:55.875Z,95.78
2017-11-23T22:35:23.599Z,95.30
2017-11-23T22:37:51.366Z,94.88
2017-11-23T22:40:19.079Z,94.43
2017-11-23T22:42:46.828Z,93.92
2017-11-23T22:45:15.298Z,94.31
2017-11-23T22:47:43.066Z,95.01
2017-11-23T22:50:10.834Z,95.33
2017-11-23T22:52:38.622Z,95.58
2017-11-23T22:55:06.402Z,95.58
2017-11-23T22:57:34.093Z,95.39
2017-11-23T23:00:01.846Z,96.00
2017-11-23T23:02:29.595Z,95.89
2017-11-23T23:04:57.293Z,95.63
2017-11-23T23:07:25.097Z,95.63
2017-11-23T23:09:52.854Z,95.43
2017-11-23T23:12:21.705Z,94.97
2017-11-23T23:14:49.387Z,94.53
2017-11-23T23:17:17.144Z,94.33
2017-11-23T23:19:44.893Z,94.62
2017-11-23T23:22:12.613Z,94.72
2017-11-23T23:24:40.385Z,94.75
2017-11-23T23:27:08.245Z,94.64
2017-11-23T23:29:36.033Z,95.11
2017-11-23T23:32:03.744Z,95.00
2017-11-23T23:34:31.520Z,94.94
2017-11-23T23:36:59.190Z,94.73
2017-11-23T23:39:26.881Z,94.68
2017-11-23T23:41:54.616Z,94.67
2017-11-23T23:44:22.351Z,94.65
2017-11-23T23:46:50.138Z,95.54
2017-11-23T23:49:17.849Z,95.67
2017-11-23T23:51:45.584Z,95.64
2017-11-23T23:54:13.405Z,95.65
2017-11-23T23:56:41.109Z,95.18
2017-11-23T23:59:08.930Z,95.39
